TimeEDT,TemperatureF,Dew PointF,Humidity,Sea Level PressureIn,VisibilityMPH,Wind Direction,Wind SpeedMPH,Gust SpeedMPH,PrecipitationIn,Events,Conditions,WindDirDegrees,DateUTC
12:53 AM,68.0,64.9,90,30.04,10.0,Calm,Calm,-,N/A,,Clear,0,2013-07-09 04:53:00
1:53 AM,66.9,64.9,93,30.04,10.0,ESE,3.5,-,N/A,,Clear,110,2013-07-09 05:53:00
2:53 AM,68.0,66.0,93,30.04,10.0,Calm,Calm,-,N/A,,Scattered Clouds,0,2013-07-09 06:53:00
3:53 AM,66.9,64.9,93,30.04,10.0,SE,3.5,-,N/A,,Clear,130,2013-07-09 07:53:00
4:53 AM,66.9,64.9,93,30.04,10.0,Calm,Calm,-,N/A,,Clear,0,2013-07-09 08:53:00
5:53 AM,66.9,64.9,93,30.06,10.0,Calm,Calm,-,N/A,,Clear,0,2013-07-09 09:53:00
6:53 AM,68.0,66.0,93,30.07,10.0,ESE,4.6,-,N/A,,Clear,110,2013-07-09 10:53:00
7:53 AM,69.1,66.0,90,30.07,10.0,ESE,5.8,-,N/A,,Clear,110,2013-07-09 11:53:00
8:53 AM,73.0,66.9,81,30.07,10.0,Calm,Calm,-,N/A,,Clear,0,2013-07-09 12:53:00
9:53 AM,73.9,66.9,79,30.06,10.0,ESE,8.1,-,N/A,,Clear,110,2013-07-09 13:53:00
10:53 AM,78.1,69.1,74,30.06,10.0,Calm,Calm,-,N/A,,Clear,0,2013-07-09 14:53:00
11:53 AM,81.0,68.0,65,30.05,10.0,ESE,3.5,-,N/A,,Clear,120,2013-07-09 15:53:00
12:53 PM,82.0,66.9,60,30.04,10.0,ESE,4.6,-,N/A,,Clear,110,2013-07-09 16:53:00
1:53 PM,84.0,69.1,61,30.01,10.0,Variable,3.5,-,N/A,,Clear,0,2013-07-09 17:53:00
2:53 PM,84.0,69.1,61,30.00,10.0,ESE,6.9,-,N/A,,Partly Cloudy,110,2013-07-09 18:53:00
3:53 PM,86.0,69.1,57,29.99,10.0,SSE,6.9,-,N/A,,Clear,150,2013-07-09 19:53:00
4:53 PM,86.0,69.1,57,29.96,10.0,East,6.9,-,N/A,,Clear,100,2013-07-09 20:53:00
5:53 PM,84.0,69.1,61,29.95,10.0,ENE,4.6,-,N/A,,Clear,70,2013-07-09 21:53:00
6:53 PM,81.0,66.9,62,29.94,10.0,WSW,5.8,-,N/A,,Mostly Cloudy,250,2013-07-09 22:53:00
7:53 PM,79.0,69.1,72,29.94,10.0,Calm,Calm,-,0.00,,Mostly Cloudy,0,2013-07-09 23:53:00
8:53 PM,77.0,70.0,79,29.95,10.0,Calm,Calm,-,N/A,,Clear,0,2013-07-10 00:53:00
9:53 PM,77.0,68.0,74,29.96,10.0,WSW,8.1,-,N/A,,Overcast,240,2013-07-10 01:53:00
10:53 PM,75.9,68.0,76,29.95,10.0,ESE,5.8,-,N/A,,Overcast,120,2013-07-10 02:53:00
11:53 PM,75.9,66.9,74,29.94,10.0,SSE,6.9,-,N/A,,Overcast,160,2013-07-10 03:53:00